Time;durP1;ratioP1;P1;durP2;ratioP2;P2;SDS_P1;SDS_P2;PMS_P1;PMS_P2;Temp;Humidity;BMP_temperature;BMP_pressure;BME280_temperature;BME280_humidity;BME280_pressure;Samples;Min_cycle;Max_cycle;Signal;HPM_P1;HPM_P2
2023/07/03 00:00:35;;;;;;;15.07;3.95;;;15.70;99.90;;;;;;5023108;28;20102;-74
2023/07/03 00:03:02;;;;;;;17.33;3.88;;;15.70;99.90;;;;;;5040108;28;20073;-75
2023/07/03 00:05:28;;;;;;;14.68;4.00;;;15.70;99.90;;;;;;5041598;28;20053;-74
2023/07/03 00:07:54;;;;;;;15.48;3.63;;;15.60;99.90;;;;;;5043873;28;20441;-75
2023/07/03 00:10:22;;;;;;;16.35;4.30;;;15.60;99.90;;;;;;5043635;28;20124;-75
2023/07/03 00:12:49;;;;;;;18.42;4.05;;;15.60;99.90;;;;;;5040697;28;20045;-76
2023/07/03 00:15:15;;;;;;;13.75;4.20;;;15.60;99.90;;;;;;5040765;28;20483;-76
2023/07/03 00:17:44;;;;;;;16.45;4.53;;;15.60;99.90;;;;;;5022248;28;20044;-76
2023/07/03 00:20:14;;;;;;;15.63;4.45;;;15.60;99.90;;;;;;5040505;28;20388;-78
2023/07/03 00:22:41;;;;;;;17.95;4.78;;;15.60;99.90;;;;;;5040588;28;20372;-75
2023/07/03 00:25:07;;;;;;;13.38;3.67;;;15.50;99.90;;;;;;5025847;28;20045;-75
2023/07/03 00:27:32;;;;;;;20.42;4.22;;;15.60;99.90;;;;;;5044030;28;20056;-75
2023/07/03 00:29:58;;;;;;;13.63;4.22;;;15.60;99.90;;;;;;5041640;28;20395;-75
2023/07/03 00:32:24;;;;;;;17.65;3.75;;;15.50;99.90;;;;;;5040494;28;20041;-76
2023/07/03 00:34:49;;;;;;;14.63;3.95;;;15.60;99.90;;;;;;5040254;28;20065;-75
2023/07/03 00:37:15;;;;;;;10.95;3.72;;;15.50;99.90;;;;;;5043112;28;20072;-75
2023/07/03 00:39:41;;;;;;;16.90;3.90;;;15.50;99.90;;;;;;5043130;28;20137;-75
2023/07/03 00:42:07;;;;;;;13.00;3.95;;;15.50;99.90;;;;;;5041801;28;20084;-77
2023/07/03 00:44:33;;;;;;;16.00;3.72;;;15.50;99.90;;;;;;5024416;28;20084;-73
2023/07/03 00:46:58;;;;;;;16.15;3.42;;;15.50;99.90;;;;;;5043002;28;20052;-78
2023/07/03 00:49:25;;;;;;;20.00;3.97;;;15.50;99.90;;;;;;5040351;28;20048;-75
2023/07/03 00:51:54;;;;;;;14.82;3.67;;;15.50;99.90;;;;;;5040112;28;20076;-75
2023/07/03 00:54:20;;;;;;;15.38;4.07;;;15.50;99.90;;;;;;5023345;28;20045;-75
2023/07/03 00:56:46;;;;;;;12.73;3.42;;;15.50;99.90;;;;;;5043049;28;20045;-75
2023/07/03 00:59:13;;;;;;;14.43;3.30;;;15.60;99.90;;;;;;5043226;28;20044;-74
2023/07/03 01:01:50;;;;;;;15.90;3.70;;;15.50;99.90;;;;;;5040237;28;20522;-76
2023/07/03 01:04:25;;;;;;;13.52;2.97;;;15.60;99.90;;;;;;5039604;28;20160;-76
2023/07/03 01:07:04;;;;;;;17.00;3.35;;;15.50;99.90;;;;;;5014071;28;20054;-75
2023/07/03 01:09:36;;;;;;;13.10;3.40;;;15.50;99.90;;;;;;5040323;28;20037;-75
2023/07/03 01:12:03;;;;;;;11.40;3.78;;;15.50;99.90;;;;;;5040854;28;20041;-75
2023/07/03 01:14:30;;;;;;;13.05;3.95;;;15.60;99.90;;;;;;5021655;28;20056;-76
2023/07/03 01:16:57;;;;;;;19.98;4.40;;;15.50;99.90;;;;;;5031465;28;20722;-77
2023/07/03 01:19:31;;;;;;;14.45;3.63;;;15.60;99.90;;;;;;5039205;28;20041;-76
2023/07/03 01:22:13;;;;;;;19.67;3.95;;;15.60;99.90;;;;;;5024146;28;20057;-77
2023/07/03 01:24:47;;;;;;;19.45;4.10;;;15.60;99.90;;;;;;5042379;28;20059;-76
2023/07/03 01:27:17;;;;;;;16.17;4.32;;;15.50;99.90;;;;;;5032050;28;20037;-75
2023/07/03 01:29:45;;;;;;;15.68;3.50;;;15.50;99.90;;;;;;5020653;28;20052;-75
2023/07/03 01:32:12;;;;;;;14.95;3.90;;;15.50;99.90;;;;;;5031277;28;20488;-75
2023/07/03 01:34:45;;;;;;;11.15;3.30;;;15.50;99.90;;;;;;5045446;28;20056;-76
2023/07/03 01:37:13;;;;;;;12.48;3.42;;;15.50;99.90;;;;;;5021722;28;20056;-76
2023/07/03 01:39:42;;;;;;;15.00;3.85;;;15.40;99.90;;;;;;5020989;28;20124;-75
2023/07/03 01:42:08;;;;;;;14.48;3.42;;;15.40;99.90;;;;;;5037364;28;20112;-75
2023/07/03 01:44:34;;;;;;;12.88;3.25;;;15.30;99.90;;;;;;5021547;28;20045;-74
2023/07/03 01:47:05;;;;;;;13.13;2.97;;;15.20;99.90;;;;;;5021460;28;20099;-73
2023/07/03 01:49:31;;;;;;;10.80;2.40;;;15.20;99.90;;;;;;5030772;28;20056;-74
2023/07/03 01:52:45;;;;;;;13.02;2.97;;;15.10;99.90;;;;;;5020992;28;20053;-75
2023/07/03 01:55:34;;;;;;;10.18;3.20;;;15.10;99.90;;;;;;4938936;29;20170;-73
2023/07/03 01:58:19;;;;;;;13.80;3.00;;;15.00;99.90;;;;;;4957896;28;20083;-75
2023/07/03 02:00:49;;;;;;;11.00;2.95;;;15.00;99.90;;;;;;4930221;29;20070;-74
2023/07/03 02:03:51;;;;;;;13.30;3.17;;;15.00;99.90;;;;;;4938658;29;20177;-74
2023/07/03 02:06:24;;;;;;;12.65;2.80;;;14.90;99.90;;;;;;4922419;29;20063;-75
2023/07/03 02:08:52;;;;;;;15.10;2.85;;;14.90;99.90;;;;;;4930926;29;20043;-75
2023/07/03 02:11:22;;;;;;;14.73;3.10;;;14.90;99.90;;;;;;4936697;29;20047;-75
2023/07/03 02:13:48;;;;;;;14.93;3.60;;;14.90;99.90;;;;;;4953776;28;20059;-74
2023/07/03 02:16:15;;;;;;;11.88;3.42;;;14.80;99.90;;;;;;4939812;29;20058;-74
2023/07/03 02:18:42;;;;;;;11.60;3.15;;;14.80;99.90;;;;;;4939473;29;20159;-76
2023/07/03 02:21:07;;;;;;;12.23;2.70;;;14.70;99.90;;;;;;4923328;29;20123;-75
2023/07/03 02:23:33;;;;;;;12.35;2.55;;;14.70;99.90;;;;;;4937987;29;20138;-75
2023/07/03 02:25:59;;;;;;;13.00;2.80;;;14.70;99.90;;;;;;4940256;29;20067;-76
2023/07/03 02:28:25;;;;;;;10.00;2.65;;;14.60;99.90;;;;;;4933430;29;20052;-75
2023/07/03 02:30:51;;;;;;;10.77;2.60;;;14.60;99.90;;;;;;4958233;28;20179;-75
2023/07/03 02:33:17;;;;;;;11.20;2.83;;;14.50;99.90;;;;;;5024231;28;20080;-76
2023/07/03 02:35:42;;;;;;;9.57;2.90;;;14.50;99.90;;;;;;5037816;28;20061;-76
2023/07/03 02:38:09;;;;;;;10.85;2.55;;;14.50;99.90;;;;;;5024371;28;20041;-75
2023/07/03 02:40:36;;;;;;;9.65;2.40;;;14.50;99.90;;;;;;5041920;28;20051;-75
2023/07/03 02:43:02;;;;;;;10.55;2.33;;;14.40;99.90;;;;;;5032313;28;20382;-76
2023/07/03 02:45:32;;;;;;;11.40;3.20;;;14.40;99.90;;;;;;5010779;28;20439;-74
2023/07/03 02:47:58;;;;;;;16.85;2.72;;;14.30;99.90;;;;;;5017873;28;20057;-75
2023/07/03 02:50:24;;;;;;;15.60;2.70;;;14.20;99.90;;;;;;5022746;28;20349;-76
2023/07/03 02:52:49;;;;;;;13.38;2.45;;;14.10;99.90;;;;;;5040713;28;20049;-74
2023/07/03 02:55:15;;;;;;;14.13;2.28;;;14.10;99.90;;;;;;5040170;28;20448;-76
2023/07/03 02:57:40;;;;;;;10.43;2.13;;;14.10;99.90;;;;;;5020153;28;20060;-75
2023/07/03 03:00:07;;;;;;;11.27;1.90;;;14.00;99.90;;;;;;5036236;28;20148;-75
2023/07/03 03:02:33;;;;;;;9.82;1.63;;;13.90;99.90;;;;;;5002718;28;20047;-75
2023/07/03 03:04:58;;;;;;;12.85;2.70;;;13.90;99.90;;;;;;5037907;28;20128;-74
2023/07/03 03:07:24;;;;;;;10.40;2.28;;;13.80;99.90;;;;;;5020047;28;20070;-75
2023/07/03 03:09:49;;;;;;;13.43;2.10;;;13.70;99.90;;;;;;5037825;28;20044;-74
2023/07/03 03:12:15;;;;;;;15.45;2.83;;;13.80;99.90;;;;;;5032621;28;20484;-74
2023/07/03 03:14:41;;;;;;;8.52;2.20;;;13.70;99.90;;;;;;5023435;28;20079;-76
2023/07/03 03:17:06;;;;;;;10.50;2.10;;;13.70;99.90;;;;;;5019894;28;20103;-75
2023/07/03 03:19:32;;;;;;;11.98;1.92;;;13.70;99.90;;;;;;5003313;28;20129;-75
2023/07/03 03:21:57;;;;;;;11.60;2.25;;;13.60;99.90;;;;;;5039420;28;20045;-75
2023/07/03 03:24:23;;;;;;;14.20;2.42;;;13.60;99.90;;;;;;5022996;28;20045;-77
2023/07/03 03:26:48;;;;;;;14.38;2.10;;;13.50;99.90;;;;;;5040487;28;20049;-75
2023/07/03 03:29:14;;;;;;;9.57;1.90;;;13.50;99.90;;;;;;5039034;28;20034;-76
2023/07/03 03:31:40;;;;;;;10.85;2.50;;;13.40;99.90;;;;;;5038716;28;20045;-74
2023/07/03 03:34:05;;;;;;;17.05;2.70;;;13.40;99.90;;;;;;5008753;28;20064;-76
2023/07/03 03:36:33;;;;;;;16.35;3.03;;;13.30;99.90;;;;;;5041054;28;20413;-75
2023/07/03 03:38:58;;;;;;;10.25;2.17;;;13.30;99.90;;;;;;5038486;28;20056;-77
2023/07/03 03:41:25;;;;;;;11.15;2.60;;;13.30;99.90;;;;;;5040894;28;20056;-75
2023/07/03 03:43:50;;;;;;;9.30;2.25;;;13.20;99.90;;;;;;5020713;28;20075;-76
2023/07/03 03:46:16;;;;;;;16.10;3.40;;;13.20;99.90;;;;;;5038478;28;20045;-74
2023/07/03 03:48:41;;;;;;;11.98;2.60;;;13.20;99.90;;;;;;5019927;28;20049;-75
2023/07/03 03:51:09;;;;;;;10.23;2.10;;;13.10;99.90;;;;;;5040748;28;20044;-75
2023/07/03 03:53:34;;;;;;;14.63;2.25;;;13.10;99.90;;;;;;5025758;28;20045;-75
2023/07/03 03:56:00;;;;;;;18.50;2.58;;;13.10;99.90;;;;;;5026660;28;20412;-74
2023/07/03 03:58:26;;;;;;;9.30;1.98;;;13.10;99.90;;;;;;5042504;28;20048;-73
2023/07/03 04:00:51;;;;;;;11.40;2.33;;;13.10;99.90;;;;;;5040581;28;20060;-74
2023/07/03 04:03:17;;;;;;;10.70;1.92;;;13.10;99.90;;;;;;5025556;28;20041;-75
2023/07/03 04:05:43;;;;;;;10.05;2.00;;;13.20;99.90;;;;;;5044305;28;20136;-74
2023/07/03 04:08:09;;;;;;;11.88;2.30;;;13.20;99.90;;;;;;5044213;28;20125;-74
2023/07/03 04:10:35;;;;;;;9.07;2.00;;;13.10;99.90;;;;;;5024089;28;20048;-75
2023/07/03 04:13:01;;;;;;;9.57;2.78;;;13.20;99.90;;;;;;5034844;28;20037;-75
2023/07/03 04:15:33;;;;;;;10.70;2.20;;;13.20;99.90;;;;;;5037388;28;20099;-74
2023/07/03 04:17:59;;;;;;;9.75;2.10;;;13.20;99.90;;;;;;5015345;28;20539;-76
2023/07/03 04:20:25;;;;;;;11.05;2.40;;;13.30;99.90;;;;;;5040664;28;20037;-76
2023/07/03 04:22:51;;;;;;;9.68;1.92;;;13.30;99.90;;;;;;5022554;28;20051;-75
2023/07/03 04:25:17;;;;;;;14.88;2.42;;;13.20;99.90;;;;;;5020041;28;20443;-76
2023/07/03 04:27:43;;;;;;;9.48;2.10;;;13.30;99.90;;;;;;5019868;28;20087;-75
2023/07/03 04:30:09;;;;;;;14.40;2.00;;;13.40;99.90;;;;;;5024127;28;20048;-76
2023/07/03 04:32:36;;;;;;;17.77;3.20;;;13.40;99.90;;;;;;5043798;28;20503;-74
2023/07/03 04:35:03;;;;;;;12.02;2.00;;;13.40;99.90;;;;;;5041975;28;20489;-75
2023/07/03 04:37:29;;;;;;;13.43;1.92;;;13.50;99.90;;;;;;5025584;28;20061;-76
2023/07/03 04:39:56;;;;;;;10.65;1.92;;;13.50;99.90;;;;;;5042682;28;20063;-76
2023/07/03 04:42:22;;;;;;;16.95;2.70;;;13.60;99.90;;;;;;5039776;28;20041;-74
2023/07/03 04:44:50;;;;;;;11.40;2.00;;;13.60;99.90;;;;;;5040290;28;20095;-75
2023/07/03 04:47:17;;;;;;;12.65;2.25;;;13.70;99.90;;;;;;5040174;28;20462;-73
2023/07/03 04:49:48;;;;;;;13.40;2.33;;;13.80;99.90;;;;;;5040033;28;20068;-73
2023/07/03 04:52:16;;;;;;;15.68;2.78;;;13.80;99.90;;;;;;5022307;28;20049;-75
2023/07/03 04:54:42;;;;;;;11.80;1.80;;;13.90;99.90;;;;;;5042712;28;20060;-76
2023/07/03 04:57:08;;;;;;;9.25;2.40;;;13.90;99.90;;;;;;5042467;28;20040;-75
2023/07/03 04:59:35;;;;;;;15.32;1.73;;;14.00;99.90;;;;;;5039964;28;20067;-76
2023/07/03 05:02:01;;;;;;;10.18;2.45;;;14.00;99.90;;;;;;5042725;28;20049;-75
2023/07/03 05:04:27;;;;;;;13.52;2.35;;;14.10;99.90;;;;;;5023287;28;20049;-75
2023/07/03 05:06:53;;;;;;;18.60;2.20;;;14.10;99.90;;;;;;5021600;28;20045;-75
2023/07/03 05:09:18;;;;;;;10.15;1.92;;;14.20;99.90;;;;;;5039136;28;20124;-75
2023/07/03 05:11:44;;;;;;;16.40;2.38;;;14.20;99.90;;;;;;5015850;28;20061;-76
2023/07/03 05:14:10;;;;;;;12.25;2.72;;;14.30;99.90;;;;;;5031743;28;20427;-76
2023/07/03 05:16:35;;;;;;;10.13;2.25;;;14.30;99.90;;;;;;5024453;28;20052;-76
2023/07/03 05:19:01;;;;;;;13.40;2.20;;;14.50;99.90;;;;;;5021834;28;20080;-76
2023/07/03 05:21:26;;;;;;;11.23;2.10;;;14.50;99.90;;;;;;5038111;28;20512;-74
2023/07/03 05:23:52;;;;;;;22.48;3.22;;;14.60;99.90;;;;;;5041393;28;20110;-76
2023/07/03 05:26:17;;;;;;;16.38;2.35;;;14.80;99.90;;;;;;5023958;28;20156;-76
2023/07/03 05:28:43;;;;;;;13.52;2.17;;;14.90;99.90;;;;;;5040596;28;20064;-75
2023/07/03 05:31:09;;;;;;;10.32;2.22;;;15.00;99.90;;;;;;5037965;28;20373;-76
2023/07/03 05:33:34;;;;;;;10.15;2.30;;;15.00;99.90;;;;;;5041949;28;20056;-75
2023/07/03 05:36:01;;;;;;;13.07;2.80;;;15.10;99.90;;;;;;5040338;28;20060;-76
2023/07/03 05:38:28;;;;;;;11.10;2.00;;;15.20;99.90;;;;;;5038914;28;20048;-76
2023/07/03 05:40:54;;;;;;;8.13;2.10;;;15.10;99.90;;;;;;5038407;28;20511;-75
2023/07/03 05:43:20;;;;;;;12.90;2.63;;;15.10;99.90;;;;;;5045011;28;20504;-77
2023/07/03 05:45:49;;;;;;;11.15;2.00;;;15.10;99.90;;;;;;5038989;28;20167;-77
2023/07/03 05:48:15;;;;;;;9.95;2.00;;;15.10;99.90;;;;;;5022861;28;20045;-76
2023/07/03 05:50:41;;;;;;;10.43;2.17;;;15.10;99.90;;;;;;5023827;28;20583;-76
2023/07/03 05:53:08;;;;;;;12.75;2.58;;;15.10;99.90;;;;;;5039554;28;20125;-76
2023/07/03 05:55:34;;;;;;;10.00;2.60;;;15.10;99.90;;;;;;5024166;28;20071;-75
2023/07/03 05:58:00;;;;;;;9.82;2.40;;;15.20;99.90;;;;;;5039654;28;20468;-76
2023/07/03 06:00:27;;;;;;;15.43;2.38;;;15.30;99.90;;;;;;5038663;28;20479;-76
2023/07/03 06:02:54;;;;;;;10.25;2.80;;;15.50;99.90;;;;;;5016510;28;20064;-77
2023/07/03 06:05:21;;;;;;;14.38;2.53;;;15.70;99.90;;;;;;5020813;28;20128;-75
2023/07/03 06:07:47;;;;;;;12.98;2.47;;;16.00;99.90;;;;;;5041447;28;20154;-76
2023/07/03 06:10:13;;;;;;;12.43;2.13;;;16.10;99.90;;;;;;5023409;28;20116;-76
2023/07/03 06:12:40;;;;;;;10.38;1.88;;;16.20;99.90;;;;;;5013064;28;20096;-76
2023/07/03 06:15:06;;;;;;;13.77;2.35;;;16.20;99.90;;;;;;5041006;28;20377;-75
2023/07/03 06:17:32;;;;;;;8.90;1.67;;;16.20;99.90;;;;;;5023292;28;20064;-77
2023/07/03 06:19:58;;;;;;;12.75;2.08;;;16.20;99.90;;;;;;5035934;28;20403;-74
2023/07/03 06:22:23;;;;;;;13.75;1.77;;;16.30;99.90;;;;;;5035768;28;20052;-76
2023/07/03 06:24:49;;;;;;;10.25;1.95;;;16.40;99.90;;;;;;5039506;28;20052;-77
2023/07/03 06:27:15;;;;;;;10.77;1.42;;;16.50;99.90;;;;;;5020380;28;20152;-77
2023/07/03 06:29:41;;;;;;;12.93;2.40;;;16.60;99.90;;;;;;5039063;28;20494;-74
2023/07/03 06:32:09;;;;;;;11.13;1.77;;;16.60;99.90;;;;;;5023235;28;20040;-75
2023/07/03 06:34:35;;;;;;;11.73;1.52;;;16.50;99.90;;;;;;5040794;28;20053;-77
2023/07/03 06:37:02;;;;;;;12.88;2.50;;;16.60;99.90;;;;;;5039546;28;20056;-76
2023/07/03 06:39:28;;;;;;;10.02;1.73;;;16.40;99.90;;;;;;5038043;28;20041;-77
2023/07/03 06:41:54;;;;;;;11.77;1.70;;;16.50;99.90;;;;;;5036876;28;20045;-74
2023/07/03 06:44:20;;;;;;;9.30;1.42;;;16.50;99.90;;;;;;5029550;28;20034;-77
2023/07/03 06:46:46;;;;;;;9.63;1.58;;;16.40;99.90;;;;;;5037762;28;20900;-76
2023/07/03 06:49:12;;;;;;;9.77;2.08;;;16.40;99.90;;;;;;5039033;28;20037;-76
2023/07/03 06:51:40;;;;;;;11.50;2.25;;;16.50;99.90;;;;;;5039915;28;20431;-76
2023/07/03 06:54:06;;;;;;;13.25;1.88;;;16.50;99.90;;;;;;5041470;28;20690;-77
2023/07/03 06:56:31;;;;;;;13.85;2.22;;;16.60;99.90;;;;;;5029739;28;20045;-76
2023/07/03 06:58:57;;;;;;;10.27;2.00;;;16.70;99.90;;;;;;5029351;28;20085;-76
2023/07/03 07:01:25;;;;;;;8.73;2.10;;;17.00;99.90;;;;;;5034504;28;20092;-75
2023/07/03 07:03:51;;;;;;;10.00;2.00;;;16.90;99.90;;;;;;5041030;28;20044;-76
2023/07/03 07:06:20;;;;;;;10.77;1.90;;;17.00;99.90;;;;;;5041367;28;20124;-75
2023/07/03 07:08:45;;;;;;;10.50;1.85;;;17.00;99.90;;;;;;5011905;28;20056;-75
2023/07/03 07:11:14;;;;;;;7.82;1.70;;;17.00;99.90;;;;;;5037483;28;20045;-76
2023/07/03 07:13:40;;;;;;;10.02;1.40;;;17.00;99.90;;;;;;5039571;28;20033;-75
2023/07/03 07:16:24;;;;;;;15.05;1.77;;;17.10;99.90;;;;;;5040477;28;20095;-74
2023/07/03 07:18:54;;;;;;;15.18;2.63;;;17.10;99.90;;;;;;5020001;28;20094;-75
2023/07/03 07:21:20;;;;;;;8.80;1.88;;;17.10;99.90;;;;;;5037504;28;20571;-76
2023/07/03 07:23:50;;;;;;;9.43;2.28;;;17.10;99.90;;;;;;5039242;28;20033;-75
2023/07/03 07:26:16;;;;;;;14.10;2.53;;;17.10;99.90;;;;;;5040965;28;20044;-74
2023/07/03 07:28:42;;;;;;;14.43;3.88;;;17.00;99.90;;;;;;5044214;28;20049;-77
2023/07/03 07:31:07;;;;;;;13.00;2.00;;;17.00;99.90;;;;;;5021584;28;20404;-75
2023/07/03 07:33:33;;;;;;;9.32;1.77;;;16.90;99.90;;;;;;5041063;28;20053;-75
2023/07/03 07:35:59;;;;;;;7.80;1.23;;;16.90;99.90;;;;;;5038104;28;20053;-74
2023/07/03 07:38:24;;;;;;;11.77;1.55;;;16.80;99.90;;;;;;5040678;28;20041;-76
2023/07/03 07:41:02;;;;;;;8.20;1.02;;;16.80;99.90;;;;;;5044269;28;20044;-74
2023/07/03 07:43:28;;;;;;;5.80;0.98;;;16.70;99.90;;;;;;5039954;28;20048;-76
2023/07/03 07:45:54;;;;;;;7.72;1.63;;;16.60;99.90;;;;;;5041024;28;20053;-75
2023/07/03 07:48:19;;;;;;;8.85;1.45;;;16.60;99.90;;;;;;5044081;28;20503;-76
2023/07/03 07:50:45;;;;;;;7.22;1.20;;;16.60;99.90;;;;;;5044449;28;20052;-76
2023/07/03 07:53:11;;;;;;;9.20;1.10;;;16.70;99.90;;;;;;5024659;28;20080;-76
2023/07/03 07:55:37;;;;;;;7.03;1.42;;;16.70;99.90;;;;;;5041283;28;20052;-76
2023/07/03 07:58:03;;;;;;;9.15;1.27;;;16.80;99.90;;;;;;5041586;28;20045;-76
2023/07/03 08:00:28;;;;;;;6.78;1.42;;;17.10;99.90;;;;;;5024360;28;20518;-76
2023/07/03 08:02:54;;;;;;;10.00;1.00;;;17.40;99.90;;;;;;5023239;28;20033;-75
2023/07/03 08:05:20;;;;;;;7.93;1.27;;;17.70;99.90;;;;;;5012493;28;20103;-75
2023/07/03 08:07:46;;;;;;;6.95;1.40;;;17.90;99.90;;;;;;5023359;28;20061;-76
2023/07/03 08:10:12;;;;;;;12.05;1.40;;;18.00;99.90;;;;;;5041485;28;20041;-76
2023/07/03 08:12:38;;;;;;;12.07;2.20;;;18.00;99.90;;;;;;5043170;28;20084;-74
2023/07/03 08:15:04;;;;;;;9.98;1.15;;;17.80;99.90;;;;;;5035639;28;20072;-75
2023/07/03 08:17:30;;;;;;;5.15;1.10;;;17.90;99.90;;;;;;5037658;28;20045;-77
2023/07/03 08:19:56;;;;;;;11.25;1.50;;;17.90;99.90;;;;;;5040737;28;20121;-75
2023/07/03 08:22:23;;;;;;;8.48;1.45;;;17.80;99.90;;;;;;5023120;28;20057;-75
2023/07/03 08:24:48;;;;;;;8.65;1.30;;;17.70;99.90;;;;;;5008610;28;20045;-75
2023/07/03 08:27:14;;;;;;;10.85;1.55;;;17.90;99.90;;;;;;5044309;28;20098;-74
2023/07/03 08:29:39;;;;;;;7.78;1.38;;;18.10;99.90;;;;;;5042319;28;20091;-76
2023/07/03 08:32:10;;;;;;;12.30;1.35;;;18.30;99.90;;;;;;5018659;28;20040;-77
2023/07/03 08:34:36;;;;;;;11.43;1.73;;;18.10;99.90;;;;;;5040531;28;20055;-77
2023/07/03 08:37:02;;;;;;;6.78;1.40;;;18.10;99.90;;;;;;5004287;28;20049;-75
2023/07/03 08:39:28;;;;;;;10.38;1.75;;;17.80;99.90;;;;;;5005890;28;20061;-75
2023/07/03 08:42:04;;;;;;;8.80;1.10;;;17.70;99.90;;;;;;5037811;28;20450;-76
2023/07/03 08:44:30;;;;;;;9.90;1.50;;;17.60;99.90;;;;;;5026256;28;20118;-74
2023/07/03 08:46:58;;;;;;;7.53;1.63;;;17.50;99.90;;;;;;5008054;28;20135;-75
2023/07/03 08:49:24;;;;;;;7.90;1.83;;;17.60;99.90;;;;;;5035776;28;20118;-76
2023/07/03 08:51:51;;;;;;;8.38;1.23;;;17.60;99.90;;;;;;5043634;28;20053;-77
2023/07/03 08:54:21;;;;;;;9.50;1.42;;;17.60;99.90;;;;;;5024005;28;20049;-76
2023/07/03 08:56:48;;;;;;;9.80;1.33;;;17.50;99.90;;;;;;5038351;28;20448;-76
2023/07/03 08:59:14;;;;;;;9.50;1.50;;;17.40;99.90;;;;;;5022335;28;20115;-75
2023/07/03 09:01:48;;;;;;;11.20;1.35;;;17.20;99.90;;;;;;5043345;28;20404;-76
2023/07/03 09:05:08;;;;;;;7.57;1.77;;;16.90;99.90;;;;;;5043076;28;20048;-76
2023/07/03 09:07:55;;;;;;;12.43;1.40;;;16.80;99.90;;;;;;4969617;28;20047;-74
2023/07/03 09:10:36;;;;;;;11.63;1.83;;;16.90;99.90;;;;;;4970321;28;20089;-76
2023/07/03 09:13:23;;;;;;;13.95;1.70;;;17.10;99.90;;;;;;4964143;28;20043;-74
2023/07/03 09:16:11;;;;;;;12.25;1.40;;;17.30;99.90;;;;;;4954356;28;20129;-77
2023/07/03 09:18:42;;;;;;;8.68;1.50;;;17.40;99.90;;;;;;4969927;28;20053;-77
2023/07/03 09:21:08;;;;;;;5.68;1.20;;;17.40;99.90;;;;;;4954422;28;20431;-76
2023/07/03 09:23:55;;;;;;;6.95;1.20;;;17.70;99.90;;;;;;4970213;28;20041;-78
2023/07/03 09:26:33;;;;;;;5.85;0.80;;;17.90;99.90;;;;;;4964812;28;20071;-76
2023/07/03 09:28:59;;;;;;;5.68;1.02;;;17.80;99.90;;;;;;4970335;28;20561;-80
2023/07/03 09:31:27;;;;;;;5.32;0.90;;;17.70;99.90;;;;;;4970403;28;20050;-77
2023/07/03 09:33:53;;;;;;;4.70;0.82;;;17.70;99.90;;;;;;4969844;28;20524;-78
2023/07/03 09:36:40;;;;;;;4.20;0.90;;;17.60;99.90;;;;;;4970555;28;20126;-78
2023/07/03 09:39:14;;;;;;;5.00;1.00;;;17.40;99.90;;;;;;4970301;28;20054;-76
2023/07/03 09:41:41;;;;;;;5.93;0.83;;;17.40;99.90;;;;;;5015714;28;20084;-75
2023/07/03 09:44:11;;;;;;;5.82;0.70;;;17.20;99.90;;;;;;5023603;28;20050;-74
2023/07/03 09:46:38;;;;;;;3.85;0.68;;;17.10;99.90;;;;;;5020898;28;20595;-73
2023/07/03 09:49:08;;;;;;;3.78;0.82;;;17.10;99.90;;;;;;5039602;28;20049;-76
2023/07/03 09:51:36;;;;;;;5.20;0.70;;;17.00;99.90;;;;;;5024347;28;20041;-75
2023/07/03 09:54:18;;;;;;;5.50;0.65;;;16.90;99.90;;;;;;5042534;28;20107;-75
2023/07/03 09:56:44;;;;;;;7.63;1.02;;;16.80;99.90;;;;;;5032944;28;20064;-77
2023/07/03 09:59:10;;;;;;;4.90;0.90;;;16.50;99.90;;;;;;5039002;28;20484;-75
2023/07/03 10:01:38;;;;;;;4.05;0.80;;;16.30;99.90;;;;;;5042420;28;20399;-75
2023/07/03 10:04:09;;;;;;;6.60;0.98;;;16.10;99.90;;;;;;5042386;28;20063;-75
2023/07/03 10:06:35;;;;;;;4.63;0.98;;;15.90;99.90;;;;;;5040460;28;20048;-76
2023/07/03 10:09:05;;;;;;;5.68;0.90;;;15.70;99.90;;;;;;5021212;28;20048;-75
2023/07/03 10:11:36;;;;;;;3.85;0.90;;;15.60;99.90;;;;;;5039035;28;20045;-76
2023/07/03 10:14:05;;;;;;;7.35;1.13;;;15.40;99.90;;;;;;5018968;28;20063;-79
2023/07/03 10:16:33;;;;;;;5.90;0.95;;;15.30;99.90;;;;;;5019192;28;20080;-76
2023/07/03 10:18:59;;;;;;;6.45;1.20;;;15.30;99.90;;;;;;5042280;28;20053;-74
2023/07/03 10:21:26;;;;;;;4.18;1.20;;;15.40;99.90;;;;;;5041989;28;20075;-76
2023/07/03 10:23:54;;;;;;;8.45;1.10;;;15.60;99.90;;;;;;5039631;28;20595;-74
2023/07/03 10:26:24;;;;;;;7.93;1.00;;;15.70;99.90;;;;;;5039002;28;20053;-76
2023/07/03 10:29:19;;;;;;;8.30;1.13;;;16.50;99.90;;;;;;5040072;28;20052;-74
2023/07/03 10:31:54;;;;;;;7.97;1.27;;;16.90;99.90;;;;;;5041530;28;20041;-75
2023/07/03 10:34:37;;;;;;;9.65;1.70;;;16.90;99.90;;;;;;5038781;28;20053;-74
2023/07/03 10:37:05;;;;;;;10.05;1.70;;;16.90;99.90;;;;;;5040737;28;20060;-75
2023/07/03 10:39:41;;;;;;;9.85;2.42;;;16.90;99.90;;;;;;5016745;28;20060;-72
2023/07/03 10:42:22;;;;;;;10.50;1.30;;;16.90;99.90;;;;;;5039607;28;20046;-74
2023/07/03 10:44:52;;;;;;;6.70;1.55;;;17.00;99.90;;;;;;5041779;28;20514;-75
2023/07/03 10:47:46;;;;;;;11.77;1.98;;;17.00;99.90;;;;;;5038922;28;20076;-74
2023/07/03 10:50:13;;;;;;;8.03;1.70;;;17.10;99.90;;;;;;5039967;28;20392;-74
2023/07/03 10:53:00;;;;;;;7.28;1.45;;;17.20;99.90;;;;;;5042000;28;20375;-74
2023/07/03 10:55:37;;;;;;;9.50;1.83;;;17.50;99.90;;;;;;5032747;28;20037;-74
2023/07/03 10:58:12;;;;;;;13.55;2.65;;;17.50;99.90;;;;;;5034820;28;20052;-74
2023/07/03 11:01:23;;;;;;;6.38;1.08;;;17.50;99.90;;;;;;5011687;28;20048;-77
2023/07/03 11:04:04;;;;;;;10.02;1.38;;;17.50;99.90;;;;;;5035601;28;20057;-75
2023/07/03 11:06:53;;;;;;;6.50;1.30;;;17.70;99.90;;;;;;5044035;28;20041;-74
2023/07/03 11:09:39;;;;;;;6.65;1.33;;;17.90;99.90;;;;;;5029950;28;20062;-75
2023/07/03 11:12:31;;;;;;;6.15;0.95;;;18.20;99.90;;;;;;5036843;28;20068;-74
2023/07/03 11:15:16;;;;;;;5.28;1.17;;;18.10;99.90;;;;;;5034969;28;20084;-76
2023/07/03 11:17:58;;;;;;;7.78;0.98;;;18.00;99.90;;;;;;5044091;28;20120;-76
2023/07/03 11:20:42;;;;;;;6.25;1.10;;;18.00;99.90;;;;;;5045201;28;20439;-77
2023/07/03 11:23:39;;;;;;;6.93;1.10;;;17.90;99.90;;;;;;5033600;28;20104;-76
2023/07/03 11:26:20;;;;;;;5.00;1.08;;;17.90;99.90;;;;;;5034865;28;20065;-78
2023/07/03 11:28:49;;;;;;;2.95;0.80;;;17.90;99.90;;;;;;5040269;28;20045;-73
2023/07/03 11:31:16;;;;;;;6.50;1.00;;;17.90;99.90;;;;;;5044204;28;20041;-78
2023/07/03 11:33:44;;;;;;;7.03;0.90;;;17.90;99.90;;;;;;5026947;28;20463;-76
2023/07/03 11:36:37;;;;;;;5.70;1.17;;;17.80;99.90;;;;;;5033358;28;20045;-74
2023/07/03 11:39:33;;;;;;;6.05;1.10;;;17.60;99.90;;;;;;5044060;28;20060;-76
2023/07/03 11:42:02;;;;;;;4.30;0.88;;;17.50;99.90;;;;;;4943805;29;20063;-77
2023/07/03 11:44:27;;;;;;;4.00;0.80;;;17.50;99.90;;;;;;4941529;29;20054;-75
2023/07/03 11:47:18;;;;;;;5.53;1.10;;;17.40;99.90;;;;;;4926033;29;20052;-76
2023/07/03 11:49:58;;;;;;;6.90;1.00;;;17.30;99.90;;;;;;4936347;28;20502;-75
2023/07/03 11:52:28;;;;;;;6.80;1.15;;;17.30;99.90;;;;;;4960220;28;20070;-76
2023/07/03 11:55:00;;;;;;;7.05;1.33;;;17.30;99.90;;;;;;4927876;29;20442;-75
2023/07/03 11:57:40;;;;;;;5.63;1.25;;;17.30;99.90;;;;;;4944108;29;20407;-76
2023/07/03 12:00:20;;;;;;;4.57;1.20;;;17.40;99.90;;;;;;4928142;29;20063;-77
2023/07/03 12:02:48;;;;;;;4.80;1.10;;;17.40;99.90;;;;;;4941427;29;20048;-78
2023/07/03 12:05:42;;;;;;;5.03;1.35;;;17.50;99.90;;;;;;4940974;29;20084;-76
2023/07/03 12:08:37;;;;;;;6.25;1.10;;;17.60;99.90;;;;;;4920665;29;20052;-74
2023/07/03 12:11:03;;;;;;;;;;;17.80;99.90;;;;;;4918817;29;20191;-75
2023/07/03 12:13:41;;;;;;;7.38;1.83;;;17.80;99.90;;;;;;4941648;29;20442;-75
2023/07/03 12:16:26;;;;;;;6.85;0.77;;;17.70;99.90;;;;;;4926025;29;20059;-78
2023/07/03 12:18:57;;;;;;;8.23;1.25;;;17.60;99.90;;;;;;4994154;28;20052;-76
2023/07/03 12:21:23;;;;;;;5.72;0.90;;;17.60;99.90;;;;;;5032928;28;20049;-76
2023/07/03 12:23:51;;;;;;;4.85;1.02;;;17.40;99.90;;;;;;5020388;28;20046;-77
2023/07/03 12:26:17;;;;;;;7.90;1.10;;;17.40;99.90;;;;;;5038380;28;20116;-78
2023/07/03 12:28:44;;;;;;;6.10;1.55;;;17.40;99.90;;;;;;5021139;28;20369;-76
2023/07/03 12:31:16;;;;;;;4.20;1.00;;;17.40;99.90;;;;;;5033202;28;20047;-76
2023/07/03 12:33:59;;;;;;;8.18;1.30;;;17.50;99.90;;;;;;5028806;28;20065;-76
2023/07/03 12:36:31;;;;;;;6.68;1.30;;;17.50;99.90;;;;;;5032000;28;20046;-79
2023/07/03 12:39:09;;;;;;;6.07;0.90;;;17.40;99.90;;;;;;5013000;28;20061;-75
2023/07/03 12:41:36;;;;;;;7.07;1.55;;;17.30;99.90;;;;;;5018672;28;20053;-77
2023/07/03 12:44:02;;;;;;;9.40;1.05;;;17.30;99.90;;;;;;5039457;28;20477;-76
2023/07/03 12:46:31;;;;;;;9.50;1.55;;;17.40;99.90;;;;;;5008391;28;20090;-77
2023/07/03 12:49:11;;;;;;;7.47;1.73;;;17.30;99.90;;;;;;5039365;28;20080;-76
2023/07/03 12:51:48;;;;;;;5.88;1.02;;;17.30;99.90;;;;;;5011713;28;20041;-76
2023/07/03 12:54:13;;;;;;;4.35;1.10;;;17.30;99.90;;;;;;5039655;28;20038;-76